Time;durP1;ratioP1;P1;durP2;ratioP2;P2;SDS_P1;SDS_P2;PMS_P1;PMS_P2;Temp;Humidity;BMP_temperature;BMP_pressure;BME280_temperature;BME280_humidity;BME280_pressure;Samples;Min_cycle;Max_cycle;Signal;HPM_P1;HPM_P2
2022/07/28 00:02:01;;;;;;;7.90;4.70;;;24.40;25.50;;;;;;4935524;29;20189;-70
2022/07/28 00:04:26;;;;;;;9.13;4.50;;;24.30;25.90;;;;;;4936644;29;20243;-72
2022/07/28 00:06:52;;;;;;;15.13;4.30;;;24.30;25.50;;;;;;4932020;29;20466;-68
2022/07/28 00:09:18;;;;;;;7.00;4.33;;;24.20;25.50;;;;;;4922551;29;20614;-69
2022/07/28 00:11:43;;;;;;;5.97;4.60;;;24.10;26.20;;;;;;4940159;28;20176;-75
2022/07/28 00:14:09;;;;;;;16.40;4.50;;;24.00;26.00;;;;;;4937168;29;20193;-69
2022/07/28 00:16:36;;;;;;;8.47;4.30;;;23.80;26.30;;;;;;4936811;29;20459;-71
2022/07/28 00:19:02;;;;;;;12.27;4.63;;;23.90;26.20;;;;;;4938630;29;20563;-69
2022/07/28 00:21:28;;;;;;;9.40;4.30;;;23.90;26.50;;;;;;4946395;28;20450;-69
2022/07/28 00:23:54;;;;;;;10.30;4.77;;;23.80;27.10;;;;;;4936123;29;20431;-69
2022/07/28 00:26:19;;;;;;;5.00;4.10;;;23.80;26.70;;;;;;4946128;29;20255;-70
2022/07/28 00:28:45;;;;;;;7.43;4.40;;;23.70;27.00;;;;;;4943466;29;20663;-72
2022/07/28 00:31:10;;;;;;;12.20;5.07;;;23.70;27.10;;;;;;4942740;29;20190;-69
2022/07/28 00:33:36;;;;;;;5.90;4.57;;;23.70;27.60;;;;;;4938668;29;20197;-69
2022/07/28 00:36:02;;;;;;;10.57;4.60;;;23.60;27.40;;;;;;4938486;29;20270;-70
2022/07/28 00:38:28;;;;;;;8.17;4.73;;;23.60;27.00;;;;;;4938854;29;20524;-69
2022/07/28 00:41:11;;;;;;;8.67;4.80;;;23.70;26.70;;;;;;4939495;29;20479;-71
2022/07/28 00:43:42;;;;;;;10.20;4.97;;;23.60;27.50;;;;;;4928993;29;20244;-69
2022/07/28 00:46:08;;;;;;;12.50;4.60;;;23.50;27.30;;;;;;4943312;29;20439;-70
2022/07/28 00:48:44;;;;;;;6.57;4.50;;;23.70;27.20;;;;;;4946038;28;20535;-70
2022/07/28 00:51:11;;;;;;;12.23;4.90;;;23.60;26.90;;;;;;4950405;29;20432;-71
2022/07/28 00:53:37;;;;;;;10.97;4.70;;;23.50;27.50;;;;;;4926634;29;20511;-69
2022/07/28 00:56:04;;;;;;;7.47;4.83;;;23.50;27.30;;;;;;4933789;29;20817;-69
2022/07/28 00:58:30;;;;;;;8.83;4.97;;;23.40;27.70;;;;;;4917748;29;20452;-69
2022/07/28 01:00:55;;;;;;;6.23;4.50;;;23.30;27.30;;;;;;4922978;29;20478;-68
2022/07/28 01:03:22;;;;;;;8.80;5.27;;;23.40;27.90;;;;;;4922294;29;20444;-69
2022/07/28 01:06:12;;;;;;;9.60;5.90;;;23.60;26.90;;;;;;4918823;29;20200;-69
2022/07/28 01:09:15;;;;;;;10.10;4.90;;;23.50;27.00;;;;;;4920567;29;20816;-69
2022/07/28 01:11:55;;;;;;;9.50;4.97;;;23.40;27.00;;;;;;4920099;29;20444;-69
2022/07/28 01:14:37;;;;;;;6.70;4.70;;;23.30;28.40;;;;;;4930334;29;20927;-69
2022/07/28 01:17:10;;;;;;;10.00;5.30;;;23.40;27.40;;;;;;4937088;29;20461;-72
2022/07/28 01:19:40;;;;;;;10.73;5.03;;;23.30;27.80;;;;;;4930550;29;20467;-69
2022/07/28 01:22:09;;;;;;;11.07;5.07;;;23.10;27.50;;;;;;4922937;29;20438;-68
2022/07/28 01:24:57;;;;;;;18.43;4.80;;;22.70;27.50;;;;;;4926983;29;20526;-71
2022/07/28 01:27:36;;;;;;;9.90;4.83;;;22.30;28.50;;;;;;4931658;29;20455;-69
2022/07/28 01:30:25;;;;;;;19.43;4.57;;;22.80;28.00;;;;;;4924906;29;20447;-69
2022/07/28 01:33:34;;;;;;;7.33;4.90;;;23.00;27.50;;;;;;4925002;29;20991;-72
2022/07/28 01:36:10;;;;;;;7.37;4.53;;;23.00;27.20;;;;;;4889306;29;20449;-69
2022/07/28 01:38:38;;;;;;;7.93;5.17;;;22.90;27.40;;;;;;4880835;29;20451;-69
2022/07/28 01:41:08;;;;;;;14.33;5.00;;;23.00;27.10;;;;;;4883415;29;20489;-70
2022/07/28 01:43:38;;;;;;;6.40;4.60;;;22.90;27.80;;;;;;4883241;29;20441;-69
2022/07/28 01:46:05;;;;;;;15.63;4.97;;;22.90;26.90;;;;;;4888157;29;20915;-69
2022/07/28 01:48:33;;;;;;;11.30;4.77;;;23.00;27.10;;;;;;4890078;29;20453;-69
2022/07/28 01:50:59;;;;;;;10.17;5.60;;;23.00;26.50;;;;;;4891553;29;20970;-68
2022/07/28 01:53:26;;;;;;;8.33;5.40;;;22.80;27.00;;;;;;4890327;29;20485;-69
2022/07/28 01:55:53;;;;;;;8.10;5.10;;;22.80;27.60;;;;;;4890027;29;20514;-69
2022/07/28 01:58:22;;;;;;;11.10;5.20;;;22.90;27.10;;;;;;4883927;29;20462;-69
2022/07/28 02:00:49;;;;;;;8.60;4.60;;;22.90;27.10;;;;;;4887640;29;20483;-69
2022/07/28 02:03:17;;;;;;;9.93;5.60;;;22.90;28.00;;;;;;4885581;29;20464;-69
2022/07/28 02:05:44;;;;;;;7.50;4.40;;;22.80;27.30;;;;;;4886715;29;21039;-69
2022/07/28 02:08:11;;;;;;;6.33;4.67;;;22.90;27.10;;;;;;4883691;29;20548;-70
2022/07/28 02:10:40;;;;;;;9.50;5.10;;;22.80;27.90;;;;;;4923752;29;20455;-69
2022/07/28 02:13:08;;;;;;;8.73;4.70;;;22.70;27.50;;;;;;4928752;29;20443;-70
2022/07/28 02:15:36;;;;;;;7.13;5.23;;;22.80;27.50;;;;;;4941815;29;20802;-73
2022/07/28 02:18:03;;;;;;;7.40;5.13;;;22.70;27.30;;;;;;4923101;29;20485;-69
2022/07/28 02:20:29;;;;;;;6.80;4.90;;;22.70;27.70;;;;;;4930723;29;20480;-69
2022/07/28 02:22:56;;;;;;;10.03;5.20;;;22.60;27.80;;;;;;4937436;28;20468;-68
2022/07/28 02:25:22;;;;;;;13.53;5.23;;;22.60;27.10;;;;;;4934379;29;20801;-72
2022/07/28 02:28:05;;;;;;;9.10;5.03;;;22.60;27.80;;;;;;4938759;29;20987;-69
2022/07/28 02:30:44;;;;;;;11.20;5.10;;;22.70;27.60;;;;;;4932459;29;20195;-69
2022/07/28 02:33:22;;;;;;;9.93;5.20;;;22.60;27.50;;;;;;4930439;29;20447;-69
2022/07/28 02:36:06;;;;;;;16.30;5.47;;;22.80;27.30;;;;;;4931348;29;21004;-69
2022/07/28 02:38:40;;;;;;;9.67;5.27;;;22.70;27.70;;;;;;4934831;29;20442;-69
2022/07/28 02:41:25;;;;;;;7.47;5.30;;;22.60;27.80;;;;;;4942467;29;20497;-69
2022/07/28 02:43:55;;;;;;;11.83;5.50;;;22.40;27.70;;;;;;4935150;29;20459;-69
2022/07/28 02:46:27;;;;;;;9.00;5.43;;;22.30;28.70;;;;;;4941784;29;20489;-71
2022/07/28 02:49:05;;;;;;;6.90;5.60;;;22.20;29.10;;;;;;4936974;29;20498;-69
2022/07/28 02:51:33;;;;;;;18.63;5.37;;;22.10;28.70;;;;;;4920788;29;20941;-68
2022/07/28 02:53:59;;;;;;;12.03;5.30;;;22.00;29.40;;;;;;4928593;29;20931;-71
2022/07/28 02:56:27;;;;;;;9.47;5.93;;;22.00;29.60;;;;;;4929850;29;20518;-70
2022/07/28 02:58:54;;;;;;;9.40;5.73;;;22.00;29.30;;;;;;4942438;29;20797;-70
2022/07/28 03:01:21;;;;;;;23.90;5.83;;;22.00;29.80;;;;;;4934001;29;20481;-69
2022/07/28 03:03:47;;;;;;;8.20;5.70;;;21.90;30.10;;;;;;4922388;29;20547;-68
2022/07/28 03:06:19;;;;;;;8.83;5.67;;;21.80;30.50;;;;;;4905397;28;1096426;-68
2022/07/28 03:08:44;;;;;;;8.90;5.67;;;21.90;30.30;;;;;;4944267;29;20467;-69
2022/07/28 03:11:12;;;;;;;17.93;11.33;;;21.90;29.80;;;;;;4941937;28;20483;-68
2022/07/28 03:13:39;;;;;;;10.43;7.50;;;21.80;29.70;;;;;;4923975;29;20207;-69
2022/07/28 03:16:05;;;;;;;9.13;5.60;;;21.80;30.50;;;;;;4927360;29;20436;-69
2022/07/28 03:18:31;;;;;;;12.33;6.33;;;21.70;30.30;;;;;;4916564;29;20450;-69
2022/07/28 03:20:57;;;;;;;8.30;5.83;;;21.70;30.80;;;;;;4915782;29;20480;-69
2022/07/28 03:23:44;;;;;;;8.70;5.77;;;21.70;31.20;;;;;;4922229;29;20215;-69
2022/07/28 03:26:22;;;;;;;9.90;5.63;;;21.70;30.80;;;;;;4918130;29;20421;-69
2022/07/28 03:28:51;;;;;;;7.60;5.83;;;21.90;30.70;;;;;;4925308;29;20443;-69
2022/07/28 03:31:19;;;;;;;10.50;6.13;;;21.60;31.00;;;;;;4923770;29;20483;-69
2022/07/28 03:33:46;;;;;;;11.27;6.57;;;21.40;31.70;;;;;;4928584;29;20437;-69
2022/07/28 03:36:17;;;;;;;8.60;5.87;;;21.40;31.70;;;;;;4916916;29;20460;-71
2022/07/28 03:38:50;;;;;;;10.20;6.10;;;21.40;31.70;;;;;;4923456;29;20927;-69
2022/07/28 03:41:17;;;;;;;9.43;5.80;;;21.30;31.80;;;;;;4922403;29;20467;-70
2022/07/28 03:43:43;;;;;;;6.47;6.07;;;21.20;31.70;;;;;;4921730;29;20508;-68
2022/07/28 03:46:09;;;;;;;9.00;5.80;;;21.10;32.50;;;;;;4930546;29;20459;-72
2022/07/28 03:48:34;;;;;;;9.10;5.67;;;21.00;32.50;;;;;;4925902;29;20953;-69
2022/07/28 03:51:00;;;;;;;11.70;6.00;;;21.10;32.10;;;;;;4928541;29;20226;-69
2022/07/28 03:53:28;;;;;;;16.23;6.07;;;21.20;32.20;;;;;;4918079;29;20192;-69
2022/07/28 03:55:55;;;;;;;12.40;6.30;;;21.40;31.40;;;;;;4926418;29;20187;-69
2022/07/28 03:58:23;;;;;;;11.70;6.40;;;21.40;31.50;;;;;;4917881;28;20456;-69
2022/07/28 04:00:50;;;;;;;14.00;6.40;;;21.20;32.50;;;;;;4926080;29;20825;-69
2022/07/28 04:03:17;;;;;;;14.70;6.60;;;21.20;32.10;;;;;;4919928;29;20429;-69
2022/07/28 04:05:43;;;;;;;11.33;6.40;;;21.10;32.30;;;;;;4916845;29;20435;-69
2022/07/28 04:08:08;;;;;;;7.87;5.87;;;21.00;33.30;;;;;;4925049;29;20474;-68
2022/07/28 04:10:34;;;;;;;7.70;6.00;;;20.90;34.10;;;;;;4926854;29;21149;-69
2022/07/28 04:13:00;;;;;;;15.33;6.80;;;20.80;33.40;;;;;;4927552;29;20637;-68
2022/07/28 04:15:27;;;;;;;8.63;6.13;;;20.80;34.00;;;;;;4933048;29;20553;-69
2022/07/28 04:17:54;;;;;;;9.37;6.00;;;21.00;33.90;;;;;;4924343;28;20511;-68
2022/07/28 04:20:21;;;;;;;9.47;6.50;;;21.20;32.80;;;;;;4931246;29;20467;-70
2022/07/28 04:22:49;;;;;;;11.07;6.47;;;21.10;33.00;;;;;;4929629;29;20443;-71
2022/07/28 04:25:16;;;;;;;14.57;6.53;;;20.90;33.60;;;;;;4933139;29;20433;-69
2022/07/28 04:27:43;;;;;;;13.20;6.50;;;20.90;33.20;;;;;;4929580;29;21029;-69
2022/07/28 04:30:12;;;;;;;7.50;6.20;;;20.90;34.10;;;;;;4932197;29;20444;-68
2022/07/28 04:32:41;;;;;;;14.70;7.00;;;20.80;33.90;;;;;;4933999;28;20449;-72
2022/07/28 04:35:08;;;;;;;17.10;6.53;;;20.90;34.10;;;;;;4933437;29;20444;-69
2022/07/28 04:37:34;;;;;;;12.00;6.73;;;20.90;33.80;;;;;;4928589;29;20555;-71
2022/07/28 04:39:59;;;;;;;16.47;7.00;;;20.90;34.10;;;;;;4938075;29;20501;-71
2022/07/28 04:42:25;;;;;;;9.83;6.50;;;21.00;33.30;;;;;;4935885;29;20198;-69
2022/07/28 04:44:51;;;;;;;9.30;6.77;;;20.90;34.10;;;;;;4934989;29;20184;-69
2022/07/28 04:47:17;;;;;;;9.77;6.80;;;20.90;33.80;;;;;;4934499;29;20699;-68
2022/07/28 04:49:43;;;;;;;10.80;7.13;;;21.00;34.20;;;;;;4929524;28;20552;-69
2022/07/28 04:52:08;;;;;;;9.70;7.70;;;21.00;34.20;;;;;;4930125;29;20453;-69
2022/07/28 04:54:35;;;;;;;11.60;7.10;;;20.90;33.50;;;;;;4940100;29;20183;-71
2022/07/28 04:57:01;;;;;;;14.13;7.93;;;21.10;33.60;;;;;;4934303;29;20242;-68
2022/07/28 04:59:27;;;;;;;10.70;7.07;;;21.30;31.90;;;;;;4934051;29;20450;-71
2022/07/28 05:01:55;;;;;;;21.07;7.73;;;21.40;32.00;;;;;;4929761;29;20447;-69
2022/07/28 05:04:21;;;;;;;17.67;9.30;;;21.30;33.20;;;;;;4938835;29;20183;-69
2022/07/28 05:06:46;;;;;;;16.40;8.27;;;21.30;31.90;;;;;;4934426;29;20487;-73
2022/07/28 05:09:12;;;;;;;15.03;8.40;;;21.30;33.10;;;;;;4936956;29;20180;-69
2022/07/28 05:11:37;;;;;;;14.93;8.20;;;21.30;33.70;;;;;;4936945;29;20188;-71
2022/07/28 05:14:03;;;;;;;14.47;9.07;;;21.30;33.50;;;;;;4930374;28;20636;-69
2022/07/28 05:16:29;;;;;;;12.23;7.80;;;21.30;32.30;;;;;;4938773;29;20265;-70
2022/07/28 05:18:54;;;;;;;17.47;8.47;;;21.70;30.90;;;;;;4925666;29;20200;-69
2022/07/28 05:21:20;;;;;;;13.63;8.97;;;21.70;31.60;;;;;;4932107;29;20215;-69
2022/07/28 05:23:45;;;;;;;21.00;8.90;;;21.60;32.10;;;;;;4937035;29;20188;-69
2022/07/28 05:26:11;;;;;;;15.90;9.27;;;21.70;33.00;;;;;;4936981;29;20576;-69
2022/07/28 05:28:36;;;;;;;18.47;9.80;;;21.60;32.50;;;;;;4943844;29;20263;-70
2022/07/28 05:31:02;;;;;;;24.30;10.00;;;21.60;33.60;;;;;;4931364;29;20279;-69
2022/07/28 05:33:28;;;;;;;16.00;9.73;;;21.60;31.90;;;;;;4941666;28;20184;-69
2022/07/28 05:35:58;;;;;;;16.30;9.93;;;21.60;31.10;;;;;;4929971;29;20202;-69
2022/07/28 05:38:24;;;;;;;17.23;9.00;;;21.60;32.00;;;;;;4945144;29;20658;-68
2022/07/28 05:40:50;;;;;;;23.67;8.43;;;21.50;30.70;;;;;;4936690;29;20984;-69
2022/07/28 05:43:16;;;;;;;17.53;7.80;;;21.20;32.30;;;;;;4941855;29;20432;-69
2022/07/28 05:45:41;;;;;;;14.20;7.63;;;21.60;31.10;;;;;;4940299;28;20211;-70
2022/07/28 05:48:07;;;;;;;15.00;7.20;;;21.40;30.50;;;;;;4938600;29;20220;-71
2022/07/28 05:50:33;;;;;;;18.57;8.00;;;21.10;31.70;;;;;;4941279;28;20197;-71
2022/07/28 05:52:59;;;;;;;12.40;7.17;;;21.00;31.50;;;;;;4935637;29;20188;-71
2022/07/28 05:55:24;;;;;;;15.80;7.20;;;20.80;32.40;;;;;;4930858;29;20186;-71
2022/07/28 05:57:50;;;;;;;15.33;7.20;;;20.80;32.80;;;;;;4933364;29;20225;-71
2022/07/28 06:00:20;;;;;;;17.03;6.90;;;20.60;32.70;;;;;;4931586;28;20233;-72
2022/07/28 06:02:47;;;;;;;18.33;7.67;;;20.80;33.60;;;;;;4938884;29;20817;-72
2022/07/28 06:05:18;;;;;;;15.47;7.00;;;20.80;33.00;;;;;;4926728;29;20445;-71
2022/07/28 06:07:44;;;;;;;11.03;6.90;;;20.70;32.40;;;;;;4939187;28;20471;-71
2022/07/28 06:10:12;;;;;;;9.80;6.50;;;20.80;32.30;;;;;;4926234;29;20452;-72
2022/07/28 06:12:40;;;;;;;11.80;6.70;;;21.20;32.10;;;;;;4934026;29;20977;-71
2022/07/28 06:15:07;;;;;;;15.57;6.33;;;21.60;30.40;;;;;;4931519;29;20920;-71
2022/07/28 06:17:32;;;;;;;11.40;6.57;;;21.40;30.50;;;;;;4941757;29;20465;-72
2022/07/28 06:19:58;;;;;;;14.10;6.60;;;20.90;31.60;;;;;;4939971;29;20488;-71
2022/07/28 06:22:23;;;;;;;17.53;6.40;;;21.00;32.50;;;;;;4933702;29;20183;-70
2022/07/28 06:24:49;;;;;;;12.73;6.80;;;21.60;30.40;;;;;;4929063;29;20644;-70
2022/07/28 06:27:14;;;;;;;16.37;6.40;;;21.20;30.40;;;;;;4935373;29;20295;-71
2022/07/28 06:29:40;;;;;;;15.53;7.40;;;20.70;31.60;;;;;;4943060;29;20197;-71
2022/07/28 06:32:06;;;;;;;12.10;6.30;;;20.90;31.90;;;;;;4936591;29;20210;-71
2022/07/28 06:34:31;;;;;;;11.47;7.00;;;21.30;31.10;;;;;;4946347;29;20185;-71
2022/07/28 06:36:57;;;;;;;11.80;6.70;;;21.30;31.20;;;;;;4944814;29;20290;-71
2022/07/28 06:39:23;;;;;;;10.30;7.10;;;21.40;31.10;;;;;;4946143;28;20629;-71
2022/07/28 06:41:48;;;;;;;11.60;7.00;;;21.60;30.60;;;;;;4928502;28;20471;-71
2022/07/28 06:44:14;;;;;;;10.80;6.90;;;21.80;30.40;;;;;;4937369;29;20199;-70
2022/07/28 06:46:40;;;;;;;11.33;6.87;;;21.40;31.60;;;;;;4945591;28;20203;-70
2022/07/28 06:49:05;;;;;;;14.30;7.50;;;20.90;32.50;;;;;;4954015;29;20181;-71
2022/07/28 06:51:31;;;;;;;16.30;6.93;;;20.90;32.40;;;;;;4953809;29;20221;-70
2022/07/28 06:53:57;;;;;;;11.07;6.90;;;21.00;32.70;;;;;;4940441;29;20267;-71
2022/07/28 06:56:23;;;;;;;12.80;6.40;;;20.80;32.70;;;;;;4936035;29;20258;-72
2022/07/28 06:58:48;;;;;;;11.73;7.30;;;20.90;33.50;;;;;;4934273;29;20900;-71
2022/07/28 07:01:15;;;;;;;13.67;7.00;;;21.00;33.40;;;;;;4941013;29;20217;-70
2022/07/28 07:03:41;;;;;;;13.20;7.57;;;21.80;32.10;;;;;;4943227;29;20417;-71
2022/07/28 07:06:07;;;;;;;18.00;6.90;;;22.10;31.50;;;;;;4941772;29;20466;-71
2022/07/28 07:08:33;;;;;;;19.40;8.23;;;22.40;30.30;;;;;;4937017;29;20567;-71
2022/07/28 07:10:59;;;;;;;18.73;8.03;;;22.60;30.00;;;;;;4945538;29;20233;-71
2022/07/28 07:13:25;;;;;;;11.47;6.80;;;22.30;31.40;;;;;;4943049;29;20527;-71
2022/07/28 07:15:50;;;;;;;12.80;7.03;;;22.80;30.70;;;;;;4942513;29;20438;-71
2022/07/28 07:18:16;;;;;;;11.70;8.07;;;23.00;29.80;;;;;;4945624;29;20199;-71
2022/07/28 07:20:41;;;;;;;13.93;7.23;;;23.20;30.50;;;;;;4946858;29;20219;-71
2022/07/28 07:23:07;;;;;;;10.60;7.20;;;23.50;29.50;;;;;;4945075;29;20181;-71
2022/07/28 07:25:33;;;;;;;14.70;7.23;;;23.70;29.00;;;;;;4947305;29;20658;-71
2022/07/28 07:27:58;;;;;;;13.17;7.87;;;23.90;29.00;;;;;;4941578;29;20215;-71
2022/07/28 07:30:24;;;;;;;14.13;7.60;;;24.00;28.80;;;;;;4945251;29;20183;-70
2022/07/28 07:32:50;;;;;;;11.17;8.07;;;23.60;28.70;;;;;;4925773;29;20197;-70
2022/07/28 07:35:15;;;;;;;12.87;7.40;;;23.40;30.10;;;;;;4938924;29;20192;-69
2022/07/28 07:37:41;;;;;;;14.43;9.00;;;23.50;29.70;;;;;;4944802;29;20302;-68
2022/07/28 07:40:08;;;;;;;10.50;7.47;;;23.70;29.00;;;;;;4953591;29;20670;-69
2022/07/28 07:42:33;;;;;;;16.50;8.60;;;24.00;29.10;;;;;;4952850;28;20634;-68
2022/07/28 07:44:59;;;;;;;12.70;8.20;;;23.60;29.50;;;;;;4953279;28;20415;-69
2022/07/28 07:47:25;;;;;;;14.70;8.00;;;23.50;29.50;;;;;;4953148;29;20213;-69
2022/07/28 07:49:50;;;;;;;19.83;8.80;;;23.60;30.40;;;;;;4925220;29;20330;-69
2022/07/28 07:52:16;;;;;;;16.43;8.60;;;23.10;30.70;;;;;;4914533;29;20378;-68
2022/07/28 07:54:42;;;;;;;19.37;8.00;;;23.10;30.90;;;;;;4914960;29;20249;-69
2022/07/28 07:57:08;;;;;;;43.17;8.17;;;23.40;30.80;;;;;;4915040;29;20210;-68
2022/07/28 07:59:34;;;;;;;14.07;8.63;;;24.00;30.10;;;;;;4919067;29;20655;-69
2022/07/28 08:02:00;;;;;;;14.17;7.97;;;24.30;29.90;;;;;;4919593;29;20432;-68
2022/07/28 08:04:26;;;;;;;12.80;8.47;;;24.20;30.50;;;;;;4919294;29;20184;-68
2022/07/28 08:06:52;;;;;;;14.53;9.23;;;24.60;29.30;;;;;;4919431;29;20477;-68
2022/07/28 08:09:18;;;;;;;14.63;9.20;;;24.70;29.40;;;;;;4919139;29;20259;-69
2022/07/28 08:11:44;;;;;;;11.87;9.10;;;24.80;29.40;;;;;;4918257;29;20899;-69
2022/07/28 08:14:10;;;;;;;11.10;8.90;;;24.90;28.80;;;;;;4918501;29;20426;-69
2022/07/28 08:16:35;;;;;;;14.43;9.03;;;24.90;29.20;;;;;;4918676;29;20203;-69
2022/07/28 08:19:01;;;;;;;14.90;8.30;;;25.10;29.20;;;;;;4918647;29;20429;-70
2022/07/28 08:21:27;;;;;;;22.23;9.23;;;25.40;28.40;;;;;;4918127;29;20219;-69
2022/07/28 08:23:54;;;;;;;30.23;9.30;;;25.20;28.30;;;;;;4918774;29;20533;-70
2022/07/28 08:26:21;;;;;;;14.23;9.87;;;24.90;28.70;;;;;;4918732;29;20424;-69
2022/07/28 08:28:47;;;;;;;15.90;9.60;;;25.20;28.70;;;;;;4931980;29;20431;-68
2022/07/28 08:31:15;;;;;;;12.20;8.93;;;25.10;28.50;;;;;;4936918;29;20471;-68
2022/07/28 08:33:45;;;;;;;13.10;8.80;;;25.10;28.60;;;;;;4937031;29;20731;-69
2022/07/28 08:36:10;;;;;;;11.93;9.20;;;25.20;29.40;;;;;;4937362;29;20911;-68
2022/07/28 08:38:36;;;;;;;20.00;8.97;;;24.90;29.50;;;;;;4936860;29;20434;-68
2022/07/28 08:41:03;;;;;;;14.10;9.37;;;24.40;30.30;;;;;;4921541;29;20240;-69
2022/07/28 08:43:37;;;;;;;11.43;8.70;;;25.10;30.30;;;;;;4917959;29;20229;-69
2022/07/28 08:46:05;;;;;;;14.30;8.60;;;25.50;28.90;;;;;;4928469;29;20430;-69
2022/07/28 08:48:33;;;;;;;13.73;8.53;;;25.80;29.20;;;;;;4937176;29;20951;-69
2022/07/28 08:51:07;;;;;;;16.27;9.40;;;25.90;28.60;;;;;;4936612;29;20454;-69
2022/07/28 08:53:35;;;;;;;15.43;8.90;;;26.40;28.60;;;;;;4936809;29;20473;-69
2022/07/28 08:56:04;;;;;;;11.67;8.97;;;26.50;28.10;;;;;;4937269;29;20416;-69
2022/07/28 08:58:35;;;;;;;11.90;9.17;;;25.60;28.70;;;;;;4936408;29;20838;-69
2022/07/28 09:01:01;;;;;;;15.47;9.83;;;24.70;30.30;;;;;;4936553;29;20796;-69
2022/07/28 09:03:30;;;;;;;11.07;8.53;;;24.90;30.80;;;;;;4936555;29;20416;-69
2022/07/28 09:05:56;;;;;;;19.30;9.70;;;25.60;29.90;;;;;;4936631;29;20507;-68
2022/07/28 09:08:23;;;;;;;14.43;9.43;;;24.60;31.10;;;;;;4935845;29;20458;-68
2022/07/28 09:10:49;;;;;;;25.70;10.23;;;24.30;32.50;;;;;;4936435;29;20419;-69
2022/07/28 09:13:16;;;;;;;12.47;9.30;;;24.90;32.00;;;;;;4935606;29;20419;-68
2022/07/28 09:15:45;;;;;;;13.80;8.70;;;25.60;30.20;;;;;;4937001;29;20419;-69
2022/07/28 09:18:12;;;;;;;14.93;9.40;;;26.20;29.00;;;;;;4936184;29;20569;-69
2022/07/28 09:20:39;;;;;;;16.20;10.00;;;26.20;28.80;;;;;;4936459;29;20447;-68
2022/07/28 09:23:06;;;;;;;14.50;9.90;;;25.90;28.50;;;;;;4936105;29;20981;-69
2022/07/28 09:25:32;;;;;;;19.60;9.80;;;26.10;29.00;;;;;;4936395;29;20412;-69
2022/07/28 09:28:06;;;;;;;15.90;10.40;;;25.80;29.30;;;;;;4936364;29;20435;-68
2022/07/28 09:30:34;;;;;;;23.80;10.20;;;25.30;30.20;;;;;;4935521;29;20431;-69
2022/07/28 09:33:16;;;;;;;15.50;10.77;;;25.90;30.00;;;;;;4935809;29;20415;-69
2022/07/28 09:36:00;;;;;;;13.10;9.70;;;25.80;29.60;;;;;;4936123;29;20430;-68
2022/07/28 09:38:26;;;;;;;24.20;10.13;;;26.30;29.20;;;;;;4936114;29;20446;-70
2022/07/28 09:41:00;;;;;;;18.30;9.90;;;27.00;28.70;;;;;;4935792;29;20455;-69
2022/07/28 09:43:39;;;;;;;18.30;10.40;;;27.40;28.40;;;;;;4935897;29;20404;-68
2022/07/28 09:46:06;;;;;;;14.03;9.53;;;27.10;27.80;;;;;;4936172;29;20416;-69
2022/07/28 09:48:32;;;;;;;19.70;9.93;;;27.30;28.50;;;;;;4924756;29;20491;-69
2022/07/28 09:51:24;;;;;;;13.27;10.20;;;28.00;28.10;;;;;;4916867;29;20444;-69
2022/07/28 09:53:50;;;;;;;12.00;9.37;;;28.40;26.40;;;;;;4914384;29;20425;-69
2022/07/28 09:56:17;;;;;;;17.47;9.83;;;28.40;26.30;;;;;;4917291;29;20412;-69
2022/07/28 09:58:56;;;;;;;14.37;10.10;;;28.30;26.00;;;;;;4916715;29;20427;-69
2022/07/28 10:01:22;;;;;;;17.17;9.90;;;28.30;26.40;;;;;;4916608;29;20448;-69
2022/07/28 10:03:54;;;;;;;21.10;9.40;;;28.60;26.30;;;;;;4916463;29;20416;-69
2022/07/28 10:06:28;;;;;;;21.33;9.30;;;28.90;26.60;;;;;;4917021;29;20222;-70
2022/07/28 10:08:56;;;;;;;16.60;9.00;;;28.70;26.10;;;;;;4931842;29;20531;-69
2022/07/28 10:11:26;;;;;;;16.37;10.10;;;29.10;25.30;;;;;;4935046;29;20423;-69
2022/07/28 10:13:52;;;;;;;17.93;8.87;;;28.80;23.80;;;;;;4934007;29;20473;-69
2022/07/28 10:16:19;;;;;;;16.23;9.00;;;29.30;24.60;;;;;;4935534;29;20458;-69
2022/07/28 10:18:46;;;;;;;9.50;8.43;;;29.50;24.40;;;;;;4935350;29;20498;-69
2022/07/28 10:21:15;;;;;;;18.00;9.03;;;29.80;24.70;;;;;;4933285;29;20446;-69
2022/07/28 10:23:50;;;;;;;12.50;8.50;;;29.50;24.60;;;;;;4935032;29;20479;-69
2022/07/28 10:26:18;;;;;;;18.30;8.50;;;29.30;25.10;;;;;;4935425;29;20391;-69
2022/07/28 10:28:50;;;;;;;18.53;9.20;;;29.40;24.70;;;;;;4935251;29;20420;-71
2022/07/28 10:31:32;;;;;;;12.10;8.63;;;29.90;24.20;;;;;;4934715;29;20451;-69
2022/07/28 10:33:59;;;;;;;19.97;9.23;;;29.60;25.30;;;;;;4934969;29;20510;-68
2022/07/28 10:36:27;;;;;;;11.17;8.13;;;29.10;23.50;;;;;;4934658;29;20450;-70
2022/07/28 10:38:58;;;;;;;11.97;8.60;;;28.90;25.80;;;;;;4928851;29;20921;-69
2022/07/28 10:41:27;;;;;;;15.07;9.13;;;29.60;24.90;;;;;;4915481;29;20500;-69
2022/07/28 10:43:55;;;;;;;14.07;8.30;;;28.70;24.20;;;;;;4915736;29;20435;-69
2022/07/28 10:46:20;;;;;;;13.40;7.80;;;29.00;25.40;;;;;;4915926;29;20503;-69
2022/07/28 10:48:47;;;;;;;14.77;8.40;;;29.90;24.30;;;;;;4916240;29;20825;-69
2022/07/28 10:51:13;;;;;;;14.90;8.00;;;29.30;24.20;;;;;;4915565;29;20180;-69
2022/07/28 10:53:54;;;;;;;11.43;7.93;;;29.10;25.00;;;;;;4915520;29;20873;-69
2022/07/28 10:56:32;;;;;;;11.00;7.80;;;29.30;24.90;;;;;;4914942;29;20443;-69
2022/07/28 10:59:19;;;;;;;11.80;8.60;;;29.40;25.20;;;;;;4915888;29;20479;-69
2022/07/28 11:01:45;;;;;;;11.13;7.80;;;29.30;24.10;;;;;;4914998;29;20558;-69
2022/07/28 11:04:46;;;;;;;10.37;8.03;;;28.70;24.50;;;;;;4915631;29;20972;-69
2022/07/28 11:07:14;;;;;;;16.03;7.97;;;28.90;24.90;;;;;;4915373;29;20239;-69
2022/07/28 11:09:40;;;;;;;11.00;7.17;;;29.60;25.30;;;;;;4919150;29;20451;-69
2022/07/28 11:12:06;;;;;;;14.07;7.17;;;29.60;22.80;;;;;;4941900;29;20439;-70
2022/07/28 11:14:36;;;;;;;9.90;7.27;;;30.00;23.10;;;;;;4931097;29;20446;-70
2022/07/28 11:17:05;;;;;;;13.00;6.70;;;30.50;22.10;;;;;;4936091;29;20494;-69
2022/07/28 11:19:42;;;;;;;11.53;7.07;;;30.80;21.30;;;;;;4930081;29;20466;-69
2022/07/28 11:22:14;;;;;;;12.30;6.07;;;29.60;22.80;;;;;;4934973;29;20643;-71
2022/07/28 11:25:01;;;;;;;11.53;6.97;;;29.50;21.70;;;;;;4927584;29;20454;-71
2022/07/28 11:27:41;;;;;;;10.97;7.00;;;29.50;22.30;;;;;;4931054;29;20450;-73
2022/07/28 11:30:17;;;;;;;10.57;6.10;;;30.30;21.90;;;;;;4934018;29;20795;-71
2022/07/28 11:32:49;;;;;;;6.87;5.37;;;31.30;18.60;;;;;;4921851;29;20474;-70
2022/07/28 11:35:18;;;;;;;14.63;5.47;;;32.50;17.00;;;;;;4915210;29;20795;-72
2022/07/28 11:37:59;;;;;;;8.07;5.20;;;33.40;14.90;;;;;;4924217;29;20451;-72
2022/07/28 11:40:32;;;;;;;9.93;5.13;;;33.40;14.90;;;;;;4930150;29;20492;-71
2022/07/28 11:43:28;;;;;;;11.30;4.70;;;33.30;14.30;;;;;;4914864;29;20424;-71
2022/07/28 11:46:07;;;;;;;7.20;5.17;;;33.70;13.50;;;;;;4921946;29;20423;-71
2022/07/28 11:48:34;;;;;;;6.70;5.20;;;34.40;15.50;;;;;;4934238;29;20516;-72
2022/07/28 11:51:02;;;;;;;5.87;5.30;;;34.70;14.00;;;;;;4927173;29;20460;-71
2022/07/28 11:53:34;;;;;;;9.97;4.83;;;32.70;16.10;;;;;;4914873;29;20433;-71
2022/07/28 11:56:09;;;;;;;7.57;4.30;;;33.30;16.30;;;;;;4915044;29;20428;-72
2022/07/28 11:58:35;;;;;;;11.00;5.50;;;34.40;12.70;;;;;;4929415;29;20441;-73
2022/07/28 12:01:17;;;;;;;10.07;5.00;;;35.40;12.20;;;;;;4943999;29;20466;-72
2022/07/28 12:03:45;;;;;;;6.13;4.10;;;35.40;10.70;;;;;;4920906;29;20428;-72
2022/07/28 12:06:13;;;;;;;6.97;4.13;;;35.10;11.10;;;;;;4930362;29;20434;-72
2022/07/28 12:09:05;;;;;;;5.43;4.37;;;34.40;11.20;;;;;;4916778;29;20482;-73
2022/07/28 12:11:33;;;;;;;8.77;4.87;;;33.80;12.20;;;;;;4921771;29;20432;-71
2022/07/28 12:14:10;;;;;;;6.53;4.77;;;32.90;13.60;;;;;;4923868;29;20424;-73
2022/07/28 12:16:43;;;;;;;7.10;4.93;;;32.80;13.60;;;;;;4916954;29;20443;-71
2022/07/28 12:19:13;;;;;;;9.93;5.20;;;32.40;15.00;;;;;;4925770;29;20463;-73
2022/07/28 12:21:45;;;;;;;7.37;5.73;;;32.20;15.90;;;;;;4920573;29;20470;-71
2022/07/28 12:24:25;;;;;;;10.00;5.60;;;32.50;15.10;;;;;;4914778;29;20427;-71
2022/07/28 12:26:50;;;;;;;11.03;5.30;;;32.40;16.10;;;;;;4914977;29;20539;-71
2022/07/28 12:29:16;;;;;;;9.07;5.20;;;32.40;15.50;;;;;;4935230;29;20512;-71
2022/07/28 12:32:16;;;;;;;6.20;5.60;;;32.00;14.70;;;;;;4924993;29;20234;-71
2022/07/28 12:34:43;;;;;;;9.03;5.93;;;32.00;15.50;;;;;;4856422;29;20450;-73
2022/07/28 12:37:11;;;;;;;6.80;5.10;;;31.80;15.70;;;;;;4860549;29;20849;-71
2022/07/28 12:39:38;;;;;;;7.30;5.30;;;32.00;16.20;;;;;;4874268;29;20599;-71
2022/07/28 12:42:08;;;;;;;6.87;5.40;;;31.80;16.20;;;;;;4855999;29;20431;-74
2022/07/28 12:44:38;;;;;;;7.47;5.80;;;31.90;15.90;;;;;;4865297;29;20517;-71
2022/07/28 12:47:06;;;;;;;7.77;5.57;;;32.00;15.90;;;;;;4881074;29;20457;-71
2022/07/28 12:49:32;;;;;;;12.43;6.03;;;32.10;17.10;;;;;;4882172;29;21049;-71
2022/07/28 12:52:12;;;;;;;7.23;5.90;;;32.30;16.00;;;;;;4858940;29;20460;-71